createdAt,value
2023-02-27T00:01:47.555Z,100297.91
2023-02-27T00:04:50.610Z,100287.41
2023-02-27T00:07:53.402Z,100305.72
2023-02-27T00:10:56.366Z,100301.84
2023-02-27T00:13:58.976Z,100321.38
2023-02-27T00:17:03.065Z,100318.66
2023-02-27T00:20:08.229Z,100318.94
2023-02-27T00:23:11.126Z,100312.97
2023-02-27T00:26:13.975Z,100325.25
2023-02-27T00:29:16.939Z,100327.12
2023-02-27T00:32:19.812Z,100343.56
2023-02-27T00:35:23.085Z,100339.78
2023-02-27T00:38:27.446Z,100334.84
2023-02-27T00:41:33.169Z,100342.91
2023-02-27T00:44:36.029Z,100350.56
2023-02-27T00:47:38.942Z,100354.56
2023-02-27T00:50:41.711Z,100363.84
2023-02-27T00:53:44.660Z,100369.09
2023-02-27T00:56:47.958Z,100372.22
2023-02-27T00:59:51.619Z,100370.75
2023-02-27T01:02:54.374Z,100366.97
2023-02-27T01:05:58.246Z,100387.44
2023-02-27T01:09:01.084Z,100391.91
2023-02-27T01:12:04.399Z,100387.44
2023-02-27T01:15:08.382Z,100396.41
2023-02-27T01:18:11.293Z,100386.34
2023-02-27T01:21:13.971Z,100399.56
2023-02-27T01:24:17.104Z,100402.47
2023-02-27T01:27:19.778Z,100402.66
2023-02-27T01:30:23.168Z,100413.78
2023-02-27T01:33:25.834Z,100409.09
2023-02-27T01:36:28.791Z,100417.72
2023-02-27T01:39:33.100Z,100428.47
2023-02-27T01:42:36.202Z,100434.44
2023-02-27T01:45:43.785Z,100441.00
2023-02-27T01:48:47.653Z,100442.72
2023-02-27T01:52:10.433Z,100441.59
2023-02-27T01:55:14.948Z,100444.06
2023-02-27T01:58:18.069Z,100457.00
2023-02-27T02:01:22.430Z,100455.72
2023-02-27T02:04:28.659Z,100455.50
2023-02-27T02:07:35.745Z,100446.56
2023-02-27T02:10:40.022Z,100458.75
2023-02-27T02:13:42.944Z,100460.09
2023-02-27T02:17:32.159Z,100468.25
2023-02-27T02:20:56.251Z,100478.91
2023-02-27T02:24:20.618Z,100467.13
2023-02-27T02:27:33.219Z,100483.34
2023-02-27T02:31:05.700Z,100469.97
2023-02-27T02:34:46.172Z,100471.53
2023-02-27T02:38:26.341Z,100483.53
2023-02-27T02:41:45.740Z,100487.31
2023-02-27T02:45:17.618Z,100491.22
2023-02-27T02:48:30.693Z,100493.66
2023-02-27T02:51:42.252Z,100498.78
2023-02-27T02:54:50.982Z,100491.91
2023-02-27T02:58:19.984Z,100506.44
2023-02-27T03:01:32.814Z,100514.38
2023-02-27T03:04:44.536Z,100509.22
2023-02-27T03:07:57.077Z,100511.25
2023-02-27T03:11:04.743Z,100494.41
2023-02-27T03:14:33.622Z,100508.63
2023-02-27T03:18:05.447Z,100515.59
2023-02-27T03:21:15.041Z,100518.28
2023-02-27T03:24:31.379Z,100510.31
2023-02-27T03:27:43.534Z,100522.81
2023-02-27T03:31:10.160Z,100522.69
2023-02-27T03:34:23.454Z,100522.69
2023-02-27T03:37:42.595Z,100535.78
2023-02-27T03:41:03.838Z,100539.19
2023-02-27T03:44:20.243Z,100546.16
2023-02-27T03:47:23.399Z,100546.81
2023-02-27T03:50:26.306Z,100546.13
2023-02-27T03:53:41.709Z,100555.16
2023-02-27T03:56:50.454Z,100556.97
2023-02-27T03:59:53.645Z,100559.25
2023-02-27T04:02:59.780Z,100557.12
2023-02-27T04:06:22.935Z,100553.13
2023-02-27T04:09:55.938Z,100557.06
2023-02-27T04:13:11.281Z,100553.53
2023-02-27T04:16:34.201Z,100560.31
2023-02-27T04:20:07.273Z,100573.81
2023-02-27T04:23:18.340Z,100577.03
2023-02-27T04:26:23.833Z,100579.87
2023-02-27T04:30:01.674Z,100578.12
2023-02-27T04:33:15.212Z,100585.28
2023-02-27T04:36:39.610Z,100598.59
2023-02-27T04:39:53.561Z,100602.41
2023-02-27T04:42:59.449Z,100601.22
2023-02-27T04:46:06.052Z,100607.59
2023-02-27T04:49:14.834Z,100595.59
2023-02-27T04:52:47.098Z,100591.50
2023-02-27T04:55:54.753Z,100606.00
2023-02-27T04:59:03.820Z,100610.63
2023-02-27T05:02:19.903Z,100615.31
2023-02-27T05:05:27.370Z,100622.69
2023-02-27T05:08:35.955Z,100612.19
2023-02-27T05:11:53.805Z,100622.59
2023-02-27T05:15:14.347Z,100633.78
2023-02-27T05:18:20.287Z,100637.97
2023-02-27T05:22:29.567Z,100634.19
2023-02-27T05:25:35.361Z,100655.47
2023-02-27T05:28:40.983Z,100662.47
2023-02-27T05:31:52.088Z,100683.47
2023-02-27T05:35:07.956Z,100689.06
2023-02-27T05:38:27.555Z,100698.84
2023-02-27T05:41:37.412Z,100708.75
2023-02-27T05:44:49.847Z,100709.84
2023-02-27T05:48:02.518Z,100718.16
2023-02-27T05:51:09.316Z,100736.16
2023-02-27T05:54:33.939Z,100741.94
2023-02-27T05:57:51.594Z,100751.84
2023-02-27T06:00:56.533Z,100745.66
2023-02-27T06:03:59.556Z,100752.81
2023-02-27T06:07:04.921Z,100769.63
2023-02-27T06:10:11.542Z,100767.75
2023-02-27T06:13:14.537Z,100770.34
2023-02-27T06:16:17.581Z,100780.94
2023-02-27T06:19:20.391Z,100773.47
2023-02-27T06:22:23.726Z,100785.38
2023-02-27T06:25:27.415Z,100799.16
2023-02-27T06:28:30.409Z,100805.97
2023-02-27T06:31:33.038Z,100810.94
2023-02-27T06:34:35.886Z,100813.75
2023-02-27T06:37:40.543Z,100814.34
2023-02-27T06:40:45.896Z,100817.16
2023-02-27T06:43:49.307Z,100819.13
2023-02-27T06:46:52.808Z,100825.91
2023-02-27T06:49:57.098Z,100828.97
2023-02-27T06:53:01.015Z,100838.75
2023-02-27T06:56:04.114Z,100843.06
2023-02-27T06:59:07.689Z,100848.16
2023-02-27T07:02:12.728Z,100852.22
2023-02-27T07:05:16.088Z,100860.37
2023-02-27T07:08:18.929Z,100861.41
2023-02-27T07:11:21.765Z,100878.81
2023-02-27T07:14:25.774Z,100876.94
2023-02-27T07:17:28.635Z,100893.41
2023-02-27T07:20:31.489Z,100889.94
2023-02-27T07:23:35.302Z,100895.69
2023-02-27T07:26:38.238Z,100902.50
2023-02-27T07:29:41.186Z,100869.22
2023-02-27T07:32:44.205Z,100878.69
2023-02-27T07:35:47.278Z,100874.37
2023-02-27T07:38:50.297Z,100873.53
2023-02-27T07:41:53.573Z,100897.81
2023-02-27T07:44:58.184Z,100885.03
2023-02-27T07:48:01.437Z,100879.16
2023-02-27T07:51:04.177Z,100872.25
2023-02-27T07:54:07.143Z,100857.13
2023-02-27T07:57:09.934Z,100858.09
2023-02-27T08:00:13.832Z,100859.94
2023-02-27T08:03:17.441Z,100859.75
2023-02-27T08:06:20.072Z,100874.78
2023-02-27T08:09:23.864Z,100883.50
2023-02-27T08:12:26.522Z,100867.78
2023-02-27T08:15:29.553Z,100862.72
2023-02-27T08:18:34.281Z,100866.50
2023-02-27T08:21:37.968Z,100875.28
2023-02-27T08:24:41.010Z,100896.41
2023-02-27T08:27:44.043Z,100900.91
2023-02-27T08:30:46.835Z,100890.31
2023-02-27T08:33:58.054Z,100885.00
2023-02-27T08:37:10.428Z,100896.25
2023-02-27T08:40:13.412Z,100897.81
2023-02-27T08:43:16.958Z,100905.91
2023-02-27T08:46:20.420Z,100899.62
2023-02-27T08:49:25.267Z,100881.94
2023-02-27T08:52:28.312Z,100900.91
2023-02-27T08:55:30.918Z,100901.47
2023-02-27T08:58:35.975Z,100908.13
2023-02-27T09:01:38.710Z,100903.38
2023-02-27T09:04:41.794Z,100921.84
2023-02-27T09:07:44.437Z,100924.50
2023-02-27T09:10:47.893Z,100931.91
2023-02-27T09:13:51.626Z,100934.47
2023-02-27T09:16:55.878Z,100932.75
2023-02-27T09:20:00.125Z,100932.69
2023-02-27T09:23:04.270Z,100933.88
2023-02-27T09:26:09.172Z,100936.72
2023-02-27T09:29:12.206Z,100940.50
2023-02-27T09:32:15.136Z,100946.53
2023-02-27T09:35:20.537Z,100947.62
2023-02-27T09:38:23.403Z,100959.03
2023-02-27T09:42:01.953Z,100959.44
2023-02-27T09:45:07.693Z,100962.97
2023-02-27T09:48:39.339Z,100964.44
2023-02-27T09:51:42.271Z,100969.66
2023-02-27T09:54:45.350Z,100971.63
2023-02-27T09:57:57.052Z,100970.47
2023-02-27T10:01:11.569Z,100985.22
2023-02-27T10:04:33.708Z,100993.06
2023-02-27T10:07:47.608Z,100995.63
2023-02-27T10:11:03.707Z,100988.84
2023-02-27T10:14:22.389Z,100983.38
2023-02-27T10:17:33.765Z,100987.78
2023-02-27T10:20:43.266Z,100991.94
2023-02-27T10:23:57.770Z,100988.94
2023-02-27T10:27:05.800Z,100985.03
2023-02-27T10:30:28.519Z,100986.97
2023-02-27T10:33:38.373Z,100998.81
2023-02-27T10:36:42.815Z,101002.22
2023-02-27T10:39:49.909Z,100995.72
2023-02-27T10:42:55.104Z,100990.63
2023-02-27T10:46:11.056Z,100975.94
2023-02-27T10:49:20.606Z,100987.16
2023-02-27T10:52:23.445Z,100967.84
2023-02-27T10:55:43.121Z,100984.91
2023-02-27T10:58:46.172Z,100983.31
2023-02-27T11:01:54.839Z,100991.44
2023-02-27T11:05:00.196Z,100987.06
2023-02-27T11:08:35.690Z,100985.38
2023-02-27T11:11:38.525Z,100983.63
2023-02-27T11:15:16.573Z,100971.16
2023-02-27T11:18:25.873Z,100972.75
2023-02-27T11:21:30.940Z,100981.56
2023-02-27T11:24:34.096Z,100984.44
2023-02-27T11:27:37.110Z,100992.09
2023-02-27T11:30:42.412Z,100996.63
2023-02-27T11:33:58.962Z,101000.22
2023-02-27T11:37:06.021Z,100998.34
2023-02-27T11:40:09.098Z,101000.56
2023-02-27T11:43:19.425Z,101010.00
2023-02-27T11:46:46.992Z,100998.22
2023-02-27T11:50:03.105Z,101015.28
2023-02-27T11:53:10.174Z,101018.28
2023-02-27T11:56:22.377Z,101009.00
2023-02-27T11:59:32.885Z,101010.03
2023-02-27T12:02:52.662Z,101005.38
2023-02-27T12:06:03.519Z,101005.22
2023-02-27T12:09:33.339Z,101019.47
2023-02-27T12:13:03.001Z,101008.88
2023-02-27T12:16:32.410Z,101005.84
2023-02-27T12:20:04.385Z,101011.94
2023-02-27T12:23:45.623Z,101012.09
2023-02-27T12:27:07.596Z,101025.03
2023-02-27T12:30:21.572Z,101018.94
2023-02-27T12:33:52.653Z,101017.19
2023-02-27T12:37:17.903Z,101030.19
2023-02-27T12:40:46.229Z,101016.09
2023-02-27T12:44:01.044Z,101030.97
2023-02-27T12:47:19.446Z,101033.75
2023-02-27T12:50:24.953Z,101038.50
2023-02-27T12:53:43.110Z,101046.16
2023-02-27T12:57:23.464Z,101045.03
2023-02-27T13:00:30.245Z,101036.38
2023-02-27T13:03:48.927Z,101039.41
2023-02-27T13:07:01.170Z,101053.53
2023-02-27T13:10:14.416Z,101049.50
2023-02-27T13:13:36.010Z,101058.00
2023-02-27T13:16:46.581Z,101050.50
2023-02-27T13:19:59.900Z,101041.69
2023-02-27T13:23:11.754Z,101056.25
2023-02-27T13:26:22.955Z,101050.75
2023-02-27T13:29:39.690Z,101053.72
2023-02-27T13:32:53.040Z,101054.91
2023-02-27T13:36:12.800Z,101059.44
2023-02-27T13:39:43.888Z,101061.66
2023-02-27T13:42:46.896Z,101055.44
2023-02-27T13:45:56.980Z,101052.91
2023-02-27T13:49:05.480Z,101049.22
2023-02-27T13:52:08.428Z,101044.41
2023-02-27T13:55:37.812Z,101032.22
2023-02-27T13:58:41.810Z,101047.09
2023-02-27T14:01:55.868Z,101036.59
2023-02-27T14:05:06.309Z,101049.19
2023-02-27T14:08:14.932Z,101053.34
2023-02-27T14:11:28.774Z,101050.31
2023-02-27T14:14:37.889Z,101056.25
2023-02-27T14:17:45.019Z,101072.81
2023-02-27T14:20:51.472Z,101052.22
2023-02-27T14:23:54.919Z,101069.22
2023-02-27T14:26:58.234Z,101067.09
2023-02-27T14:30:05.268Z,101070.50
2023-02-27T14:33:10.973Z,101073.47
2023-02-27T14:36:21.250Z,101069.75
2023-02-27T14:39:30.735Z,101071.69
2023-02-27T14:42:44.750Z,101067.56
2023-02-27T14:45:48.927Z,101072.88
2023-02-27T14:48:57.633Z,101073.97
2023-02-27T14:52:22.396Z,101096.69
2023-02-27T14:55:52.641Z,101088.94
2023-02-27T14:59:04.395Z,101086.72
2023-02-27T15:02:35.691Z,101110.53
2023-02-27T15:05:38.863Z,101125.28
2023-02-27T15:08:45.290Z,101111.19
2023-02-27T15:11:57.509Z,101112.97
2023-02-27T15:15:10.586Z,101114.25
2023-02-27T15:18:15.225Z,101111.00
2023-02-27T15:21:20.730Z,101104.66
2023-02-27T15:24:26.336Z,101105.03
2023-02-27T15:27:30.256Z,101099.62
2023-02-27T15:30:33.582Z,101093.72
2023-02-27T15:33:36.918Z,101100.69
2023-02-27T15:36:46.260Z,101110.47
2023-02-27T15:39:51.675Z,101129.69
2023-02-27T15:42:55.239Z,101114.34
2023-02-27T15:45:58.611Z,101095.13
2023-02-27T15:49:01.501Z,101117.53
2023-02-27T15:52:13.298Z,101123.72
2023-02-27T15:55:23.895Z,101135.44
2023-02-27T15:58:26.819Z,101130.09
2023-02-27T16:01:35.207Z,101142.56
2023-02-27T16:04:38.664Z,101136.06
2023-02-27T16:07:43.163Z,101139.56
2023-02-27T16:10:47.515Z,101141.19
2023-02-27T16:13:51.217Z,101139.09
2023-02-27T16:16:55.846Z,101125.06
2023-02-27T16:20:02.082Z,101155.94
2023-02-27T16:23:20.185Z,101164.88
2023-02-27T16:26:39.338Z,101167.56
2023-02-27T16:29:45.298Z,101179.72
2023-02-27T16:32:48.191Z,101175.53
2023-02-27T16:36:04.981Z,101190.50
2023-02-27T16:39:13.290Z,101190.78
2023-02-27T16:42:16.633Z,101197.25
2023-02-27T16:45:28.375Z,101202.44
2023-02-27T16:48:31.280Z,101198.34
2023-02-27T16:51:34.954Z,101195.22
2023-02-27T16:54:38.068Z,101203.94
2023-02-27T16:57:40.729Z,101201.88
2023-02-27T17:00:44.281Z,101209.28
2023-02-27T17:03:47.702Z,101204.59
2023-02-27T17:06:51.437Z,101206.47
2023-02-27T17:09:54.240Z,101199.09
2023-02-27T17:12:57.276Z,101197.97
2023-02-27T17:16:00.025Z,101196.94
2023-02-27T17:19:03.707Z,101202.63
2023-02-27T17:22:06.657Z,101215.69
2023-02-27T17:25:10.561Z,101214.66
2023-02-27T17:28:13.745Z,101216.56
2023-02-27T17:31:18.763Z,101213.22
2023-02-27T17:34:21.528Z,101222.19
2023-02-27T17:37:27.169Z,101228.22
2023-02-27T17:40:30.544Z,101230.81
2023-02-27T17:43:33.751Z,101236.91
2023-02-27T17:46:36.505Z,101236.91
2023-02-27T17:49:39.883Z,101234.13
2023-02-27T17:52:43.132Z,101246.47
2023-02-27T17:55:46.220Z,101241.78
2023-02-27T17:58:49.992Z,101249.06
2023-02-27T18:01:55.509Z,101237.25
2023-02-27T18:04:58.945Z,101253.03
2023-02-27T18:08:01.693Z,101245.06
2023-02-27T18:11:10.918Z,101251.00
2023-02-27T18:14:14.016Z,101239.44
2023-02-27T18:17:16.974Z,101248.75
2023-02-27T18:20:20.355Z,101267.75
2023-02-27T18:23:23.634Z,101259.19
2023-02-27T18:26:30.995Z,101261.44
2023-02-27T18:29:34.558Z,101262.47
2023-02-27T18:32:37.778Z,101269.41
2023-02-27T18:35:42.759Z,101272.03
2023-02-27T18:38:45.920Z,101271.81
2023-02-27T18:41:49.245Z,101290.09
2023-02-27T18:44:52.120Z,101298.94
2023-02-27T18:47:55.850Z,101295.06
2023-02-27T18:51:04.989Z,101295.78
2023-02-27T18:54:11.610Z,101300.22
2023-02-27T18:57:15.854Z,101306.91
2023-02-27T19:00:21.704Z,101311.56
2023-02-27T19:03:25.712Z,101306.47
2023-02-27T19:06:34.507Z,101310.03
2023-02-27T19:09:37.702Z,101321.28
2023-02-27T19:12:42.545Z,101316.00
2023-02-27T19:15:45.791Z,101310.38
2023-02-27T19:18:49.402Z,101304.78
2023-02-27T19:21:52.312Z,101302.00
2023-02-27T19:24:58.000Z,101306.06
2023-02-27T19:28:01.086Z,101306.41
2023-02-27T19:31:10.071Z,101310.31
2023-02-27T19:34:14.777Z,101310.91
2023-02-27T19:37:17.897Z,101321.41
2023-02-27T19:40:23.936Z,101310.28
2023-02-27T19:43:27.516Z,101317.78
2023-02-27T19:46:33.428Z,101322.44
2023-02-27T19:49:37.532Z,101321.56
2023-02-27T19:52:41.043Z,101319.09
2023-02-27T19:55:44.496Z,101330.88
2023-02-27T19:58:48.205Z,101327.25
2023-02-27T20:01:52.218Z,101334.34
2023-02-27T20:04:55.447Z,101337.59
2023-02-27T20:07:58.215Z,101345.09
2023-02-27T20:11:04.516Z,101343.31
2023-02-27T20:14:07.952Z,101339.34
2023-02-27T20:17:11.562Z,101345.78
2023-02-27T20:20:15.451Z,101352.00
2023-02-27T20:23:18.817Z,101337.78
2023-02-27T20:26:29.527Z,101335.09
2023-02-27T20:29:33.245Z,101337.75
2023-02-27T20:32:36.223Z,101344.56
2023-02-27T20:35:40.383Z,101349.53
2023-02-27T20:38:43.920Z,101353.94
2023-02-27T20:41:47.276Z,101344.88
2023-02-27T20:44:53.291Z,101359.13
2023-02-27T20:48:00.831Z,101359.75
2023-02-27T20:51:11.768Z,101355.97
2023-02-27T20:54:20.408Z,101355.19
2023-02-27T20:57:23.772Z,101353.72
2023-02-27T21:00:27.126Z,101364.41
2023-02-27T21:03:38.299Z,101365.44
2023-02-27T21:06:42.205Z,101349.88
2023-02-27T21:09:45.684Z,101349.56
2023-02-27T21:12:49.043Z,101360.91
2023-02-27T21:15:51.936Z,101358.84
2023-02-27T21:18:56.783Z,101358.38
2023-02-27T21:21:59.725Z,101370.84
2023-02-27T21:25:02.906Z,101363.84
2023-02-27T21:28:06.526Z,101359.47
2023-02-27T21:31:09.758Z,101365.09
2023-02-27T21:34:14.953Z,101358.94
2023-02-27T21:37:17.965Z,101357.69
2023-02-27T21:40:21.708Z,101359.91
2023-02-27T21:43:24.758Z,101366.00
2023-02-27T21:46:28.066Z,101363.75
2023-02-27T21:49:31.326Z,101365.13
2023-02-27T21:52:34.048Z,101374.59
2023-02-27T21:55:37.164Z,101378.88
2023-02-27T21:58:40.107Z,101377.38
2023-02-27T22:01:47.308Z,101388.91
2023-02-27T22:04:50.347Z,101387.13
2023-02-27T22:07:52.976Z,101381.94
2023-02-27T22:10:57.762Z,101403.19
2023-02-27T22:14:00.679Z,101405.94
2023-02-27T22:17:03.638Z,101413.34
2023-02-27T22:20:07.304Z,101408.59
2023-02-27T22:23:10.371Z,101418.81
2023-02-27T22:26:16.209Z,101428.94
2023-02-27T22:29:19.404Z,101428.69
2023-02-27T22:32:22.120Z,101436.47
2023-02-27T22:35:25.406Z,101437.69
2023-02-27T22:38:29.103Z,101435.59
2023-02-27T22:41:34.967Z,101441.47
2023-02-27T22:44:37.627Z,101439.91
2023-02-27T22:47:40.852Z,101440.09
2023-02-27T22:50:43.455Z,101449.53
2023-02-27T22:53:46.638Z,101455.66
2023-02-27T22:56:51.101Z,101455.09
2023-02-27T22:59:54.017Z,101458.44
2023-02-27T23:02:56.682Z,101469.62
2023-02-27T23:06:00.226Z,101472.25
2023-02-27T23:09:05.561Z,101469.53
2023-02-27T23:12:08.587Z,101485.47
2023-02-27T23:15:11.482Z,101481.56
2023-02-27T23:18:14.746Z,101486.41
2023-02-27T23:21:19.719Z,101492.88
2023-02-27T23:24:22.608Z,101499.09
2023-02-27T23:27:26.525Z,101499.66
2023-02-27T23:30:30.240Z,101503.00
2023-02-27T23:33:33.045Z,101504.50
2023-02-27T23:36:37.811Z,101511.16
2023-02-27T23:39:40.786Z,101516.50
2023-02-27T23:42:43.755Z,101508.00
2023-02-27T23:45:46.536Z,101509.59
2023-02-27T23:48:49.684Z,101512.03
2023-02-27T23:51:52.408Z,101520.69
2023-02-27T23:54:55.339Z,101515.69
2023-02-27T23:57:59.698Z,101510.19
